createdAt,value
2022-11-12T00:02:27.866Z,102148.22
2022-11-12T00:05:14.999Z,102141.09
2022-11-12T00:08:02.371Z,102147.38
2022-11-12T00:10:49.242Z,102146.47
2022-11-12T00:13:35.772Z,102144.69
2022-11-12T00:16:22.435Z,102142.03
2022-11-12T00:19:09.375Z,102143.75
2022-11-12T00:21:56.338Z,102143.72
2022-11-12T00:24:42.734Z,102141.91
2022-11-12T00:27:29.007Z,102137.50
2022-11-12T00:30:16.837Z,102142.84
2022-11-12T00:33:04.672Z,102141.94
2022-11-12T00:35:50.897Z,102148.19
2022-11-12T00:38:37.529Z,102143.81
2022-11-12T00:41:24.072Z,102143.84
2022-11-12T00:44:11.089Z,102136.72
2022-11-12T00:46:57.492Z,102126.09
2022-11-12T00:49:43.821Z,102119.88
2022-11-12T00:52:30.345Z,102137.63
2022-11-12T00:55:16.801Z,102139.44
2022-11-12T00:58:03.624Z,102132.31
2022-11-12T01:00:50.648Z,102134.97
2022-11-12T01:03:44.422Z,102143.88
2022-11-12T01:06:31.066Z,102135.88
2022-11-12T01:09:18.561Z,102129.69
2022-11-12T01:12:06.317Z,102136.78
2022-11-12T01:14:53.097Z,102136.78
2022-11-12T01:17:40.315Z,102136.78
2022-11-12T01:20:26.492Z,102141.22
2022-11-12T01:23:13.129Z,102134.09
2022-11-12T01:26:04.292Z,102132.31
2022-11-12T01:28:51.756Z,102134.97
2022-11-12T01:31:39.374Z,102136.72
2022-11-12T01:34:26.609Z,102129.63
2022-11-12T01:37:13.715Z,102138.44
2022-11-12T01:40:00.365Z,102123.31
2022-11-12T01:42:53.941Z,102121.50
2022-11-12T01:45:46.636Z,102114.44
2022-11-12T01:48:39.736Z,102118.84
2022-11-12T01:51:37.570Z,102115.34
2022-11-12T01:54:27.109Z,102115.34
2022-11-12T01:57:15.733Z,102105.63
2022-11-12T02:00:10.075Z,102111.84
2022-11-12T02:03:01.061Z,102108.28
2022-11-12T02:05:52.044Z,102107.38
2022-11-12T02:08:40.267Z,102096.78
2022-11-12T02:11:26.841Z,102100.34
2022-11-12T02:14:14.431Z,102091.47
2022-11-12T02:17:01.504Z,102110.16
2022-11-12T02:19:48.728Z,102103.06
2022-11-12T02:22:35.381Z,102101.25
2022-11-12T02:25:24.633Z,102100.38
2022-11-12T02:28:10.939Z,102093.31
2022-11-12T02:30:57.712Z,102098.66
2022-11-12T02:33:44.569Z,102100.47
2022-11-12T02:36:31.335Z,102090.72
2022-11-12T02:39:17.904Z,102097.84
2022-11-12T02:42:04.819Z,102091.69
2022-11-12T02:44:51.532Z,102095.22
2022-11-12T02:47:38.216Z,102098.78
2022-11-12T02:50:25.067Z,102092.56
2022-11-12T02:53:11.966Z,102094.38
2022-11-12T02:56:00.204Z,102098.81
2022-11-12T02:58:47.396Z,102095.31
2022-11-12T03:01:34.620Z,102098.88
2022-11-12T03:04:21.198Z,102100.69
2022-11-12T03:07:08.189Z,102100.72
2022-11-12T03:09:54.878Z,102098.97
2022-11-12T03:12:41.145Z,102099.84
2022-11-12T03:15:29.634Z,102098.09
2022-11-12T03:18:16.641Z,102105.19
2022-11-12T03:21:03.515Z,102096.28
2022-11-12T03:23:50.235Z,102102.47
2022-11-12T03:26:37.008Z,102104.25
2022-11-12T03:29:23.967Z,102099.78
2022-11-12T03:32:10.581Z,102101.63
2022-11-12T03:34:58.128Z,102100.75
2022-11-12T03:38:05.727Z,102097.25
2022-11-12T03:40:52.503Z,102100.75
2022-11-12T03:43:39.549Z,102099.84
2022-11-12T03:46:26.426Z,102099.00
2022-11-12T03:49:13.226Z,102105.25
2022-11-12T03:51:59.489Z,102093.72
2022-11-12T03:54:46.105Z,102092.81
2022-11-12T03:57:33.097Z,102097.28
2022-11-12T04:00:22.726Z,102096.41
2022-11-12T04:03:09.098Z,102087.56
2022-11-12T04:06:15.085Z,102093.81
2022-11-12T04:09:01.540Z,102093.84
2022-11-12T04:11:48.303Z,102092.06
2022-11-12T04:14:35.378Z,102085.88
2022-11-12T04:17:40.828Z,102091.25
2022-11-12T04:21:06.252Z,102093.91
2022-11-12T04:23:53.202Z,102088.56
2022-11-12T04:26:40.091Z,102081.44
2022-11-12T04:29:46.015Z,102086.75
2022-11-12T04:32:36.962Z,102086.75
2022-11-12T04:35:27.730Z,102087.59
2022-11-12T04:38:14.121Z,102082.28
2022-11-12T04:41:19.811Z,102082.28
2022-11-12T04:44:25.479Z,102087.63
2022-11-12T04:47:12.287Z,102091.19
2022-11-12T04:49:59.617Z,102100.03
2022-11-12T04:52:46.315Z,102093.84
2022-11-12T04:55:33.331Z,102093.81
2022-11-12T04:58:20.323Z,102087.63
2022-11-12T05:01:07.107Z,102092.06
2022-11-12T05:03:53.462Z,102084.06
2022-11-12T05:06:52.168Z,102084.09
2022-11-12T05:09:39.146Z,102082.31
2022-11-12T05:12:26.993Z,102092.16
2022-11-12T05:15:13.535Z,102091.31
2022-11-12T05:18:00.831Z,102082.50
2022-11-12T05:20:48.029Z,102082.56
2022-11-12T05:23:34.207Z,102072.84
2022-11-12T05:26:20.656Z,102074.66
2022-11-12T05:29:08.921Z,102081.81
2022-11-12T05:31:56.343Z,102082.72
2022-11-12T05:34:43.456Z,102082.69
2022-11-12T05:37:30.904Z,102081.78
2022-11-12T05:40:17.562Z,102079.97
2022-11-12T05:43:04.051Z,102089.75
2022-11-12T05:45:50.640Z,102091.50
2022-11-12T05:48:37.095Z,102091.47
2022-11-12T05:51:24.697Z,102093.25
2022-11-12T05:54:12.470Z,102090.66
2022-11-12T05:56:59.661Z,102094.25
2022-11-12T05:59:46.163Z,102090.72
2022-11-12T06:02:32.799Z,102088.94
2022-11-12T06:05:20.256Z,102098.72
2022-11-12T06:08:07.280Z,102105.78
2022-11-12T06:10:55.512Z,102108.44
2022-11-12T06:13:42.438Z,102111.13
2022-11-12T06:16:31.382Z,102118.22
2022-11-12T06:19:18.408Z,102120.84
2022-11-12T06:22:05.001Z,102111.06
2022-11-12T06:24:51.733Z,102119.03
2022-11-12T06:27:38.798Z,102126.16
2022-11-12T06:30:26.012Z,102111.06
2022-11-12T06:33:12.479Z,102116.41
2022-11-12T06:36:03.423Z,102122.59
2022-11-12T06:38:50.393Z,102126.22
2022-11-12T06:41:36.944Z,102139.56
2022-11-12T06:44:23.312Z,102128.03
2022-11-12T06:47:10.974Z,102132.44
2022-11-12T06:49:57.814Z,102132.50
2022-11-12T06:52:44.004Z,102135.16
2022-11-12T06:55:30.528Z,102137.81
2022-11-12T06:58:17.541Z,102129.81
2022-11-12T07:01:17.493Z,102128.91
2022-11-12T07:04:04.415Z,102130.69
2022-11-12T07:06:51.586Z,102120.94
2022-11-12T07:09:38.073Z,102132.50
2022-11-12T07:12:25.226Z,102125.38
2022-11-12T07:15:11.680Z,102127.16
2022-11-12T07:17:58.040Z,102114.72
2022-11-12T07:20:44.699Z,102119.16
2022-11-12T07:23:34.223Z,102114.72
2022-11-12T07:26:24.515Z,102127.16
2022-11-12T07:29:11.461Z,102129.84
2022-11-12T07:31:58.790Z,102126.31
2022-11-12T07:34:45.552Z,102116.56
2022-11-12T07:37:33.701Z,102121.00
2022-11-12T07:40:22.017Z,102116.59
2022-11-12T07:43:08.668Z,102121.91
2022-11-12T07:46:07.513Z,102126.28
2022-11-12T07:49:04.145Z,102125.41
2022-11-12T07:51:50.925Z,102103.28
2022-11-12T07:54:37.706Z,102098.81
2022-11-12T07:57:25.126Z,102106.78
2022-11-12T08:00:12.574Z,102097.94
2022-11-12T08:03:05.064Z,102096.19
2022-11-12T08:05:54.418Z,102100.59
2022-11-12T08:08:40.993Z,102101.50
2022-11-12T08:11:27.858Z,102101.53
2022-11-12T08:14:14.758Z,102103.31
2022-11-12T08:17:01.420Z,102098.91
2022-11-12T08:19:48.032Z,102113.91
2022-11-12T08:22:34.376Z,102106.84
2022-11-12T08:25:20.779Z,102107.69
2022-11-12T08:28:07.794Z,102089.09
2022-11-12T08:30:55.011Z,102107.59
2022-11-12T12:11:01.167Z,102068.66
2022-11-12T12:14:52.262Z,102057.97
2022-11-12T12:24:05.795Z,102048.97
2022-11-12T18:05:10.399Z,101818.72
2022-11-12T18:07:58.036Z,101811.66
2022-11-12T18:10:47.098Z,101800.97
2022-11-12T18:13:33.827Z,101802.75
2022-11-12T18:16:31.688Z,101811.59
2022-11-12T18:19:18.710Z,101808.97
2022-11-12T18:22:05.774Z,101811.59
2022-11-12T18:24:53.147Z,101819.59
2022-11-12T18:27:39.742Z,101810.75
2022-11-12T18:30:26.653Z,101820.53
2022-11-12T18:33:13.512Z,101821.38
2022-11-12T18:36:12.669Z,101809.78
2022-11-12T18:39:01.056Z,101814.31
2022-11-12T18:41:47.654Z,101811.66
2022-11-12T18:44:34.328Z,101799.44
2022-11-12T18:47:23.215Z,101813.56
2022-11-12T18:50:10.677Z,101808.31
2022-11-12T18:52:57.270Z,101810.06
2022-11-12T18:55:44.399Z,101805.63
2022-11-12T18:58:35.140Z,101810.13
2022-11-12T19:01:25.311Z,101803.00
2022-11-12T19:04:12.079Z,101800.41
2022-11-12T19:06:59.158Z,101795.09
2022-11-12T19:09:45.675Z,101790.66
2022-11-12T19:12:32.202Z,101793.31
2022-11-12T19:15:24.049Z,101790.66
2022-11-12T19:18:15.169Z,101783.66
2022-11-12T19:21:09.606Z,101789.84
2022-11-12T19:23:57.672Z,101788.97
2022-11-12T19:26:44.839Z,101783.78
2022-11-12T19:29:32.730Z,101785.50
2022-11-12T19:32:23.687Z,101777.53
2022-11-12T19:35:15.005Z,101779.31
2022-11-12T19:38:02.883Z,101780.28
2022-11-12T19:40:49.835Z,101780.28
2022-11-12T19:43:40.512Z,101781.16
2022-11-12T19:46:27.548Z,101780.28
2022-11-12T19:49:14.497Z,101756.50
2022-11-12T19:52:03.059Z,101768.78
2022-11-12T19:54:51.140Z,101756.41
2022-11-12T19:57:37.916Z,101771.44
2022-11-12T20:00:25.259Z,101776.75
2022-11-12T20:03:12.279Z,101755.44
2022-11-12T20:06:08.992Z,101757.22
2022-11-12T20:09:04.133Z,101756.28
2022-11-12T20:11:51.167Z,101756.28
2022-11-12T20:14:37.845Z,101760.63
2022-11-12T20:17:24.410Z,101747.31
2022-11-12T20:20:11.863Z,101750.84
2022-11-12T20:22:58.823Z,101743.81
2022-11-12T20:25:46.248Z,101750.78
2022-11-12T20:28:38.498Z,101741.03
2022-11-12T20:31:25.115Z,101746.31
2022-11-12T20:34:13.165Z,101741.88
2022-11-12T20:36:59.971Z,101742.72
2022-11-12T20:39:47.259Z,101747.22
2022-11-12T20:42:33.737Z,101743.66
2022-11-12T20:45:21.187Z,101745.47
